createdAt,value
2018-02-06T00:02:18.260Z,25.02
2018-02-06T00:04:46.585Z,36.40
2018-02-06T00:07:14.938Z,27.33
2018-02-06T00:09:43.262Z,25.95
2018-02-06T00:12:11.610Z,25.37
2018-02-06T00:14:39.925Z,24.30
2018-02-06T00:17:08.245Z,23.17
2018-02-06T00:19:36.593Z,26.92
2018-02-06T00:22:04.913Z,19.52
2018-02-06T00:24:33.253Z,35.30
2018-02-06T00:27:01.578Z,28.23
2018-02-06T00:29:29.921Z,20.77
2018-02-06T00:31:58.249Z,22.02
2018-02-06T00:34:26.622Z,27.15
2018-02-06T00:36:54.915Z,21.92
2018-02-06T00:39:23.253Z,33.88
2018-02-06T00:41:51.573Z,23.45
2018-02-06T00:44:19.913Z,25.27
2018-02-06T00:46:48.228Z,21.20
2018-02-06T00:49:16.575Z,27.48
2018-02-06T00:51:44.898Z,22.42
2018-02-06T00:54:13.237Z,21.77
2018-02-06T00:56:41.553Z,24.83
2018-02-06T00:59:09.889Z,26.45
2018-02-06T01:01:38.205Z,24.95
2018-02-06T01:04:06.545Z,18.90
2018-02-06T01:06:34.865Z,24.08
2018-02-06T01:09:03.212Z,22.33
2018-02-06T01:11:31.521Z,20.98
2018-02-06T01:13:59.857Z,23.15
2018-02-06T01:16:28.177Z,20.58
2018-02-06T01:18:56.522Z,23.25
2018-02-06T01:21:24.841Z,21.33
2018-02-06T01:23:53.241Z,19.48
2018-02-06T01:26:21.622Z,27.40
2018-02-06T01:28:49.992Z,21.23
2018-02-06T01:31:18.317Z,23.08
2018-02-06T01:33:46.661Z,16.73
2018-02-06T01:36:14.984Z,21.33
2018-02-06T01:38:43.355Z,21.80
2018-02-06T01:41:11.658Z,21.65
2018-02-06T01:43:39.997Z,19.90
2018-02-06T01:46:08.321Z,27.37
2018-02-06T01:48:36.669Z,20.17
2018-02-06T01:51:04.984Z,18.52
2018-02-06T01:53:33.333Z,18.33
2018-02-06T01:56:01.670Z,23.87
2018-02-06T01:58:30.002Z,16.30
2018-02-06T02:00:58.325Z,21.65
2018-02-06T02:03:26.670Z,25.02
2018-02-06T02:05:54.993Z,18.55
2018-02-06T02:08:23.337Z,21.45
2018-02-06T02:10:51.656Z,24.35
2018-02-06T02:13:20.002Z,24.70
2018-02-06T02:15:48.326Z,16.42
2018-02-06T02:18:16.646Z,18.92
2018-02-06T02:20:44.990Z,17.45
2018-02-06T02:23:13.318Z,24.98
2018-02-06T02:25:42.185Z,18.70
2018-02-06T02:28:10.509Z,20.90
2018-02-06T02:30:38.857Z,15.40
2018-02-06T02:33:07.174Z,20.45
2018-02-06T02:35:35.569Z,13.80
2018-02-06T02:38:03.891Z,21.08
2018-02-06T02:40:32.234Z,17.40
2018-02-06T04:39:13.632Z,23.80
2018-02-06T04:41:41.974Z,23.10
2018-02-06T04:44:10.368Z,111.53
2018-02-06T04:46:38.736Z,164.57
2018-02-06T04:49:07.073Z,91.00
2018-02-06T04:51:35.496Z,95.78
2018-02-06T04:54:03.825Z,25.75
2018-02-06T04:56:32.175Z,22.75
2018-02-06T04:59:00.517Z,25.48
2018-02-06T05:01:28.900Z,22.70
2018-02-06T05:03:57.231Z,25.20
2018-02-06T05:06:25.658Z,20.58
2018-02-06T05:08:53.988Z,24.00
2018-02-06T05:11:22.334Z,20.55
2018-02-06T05:13:50.657Z,22.67
2018-02-06T05:16:19.060Z,21.60
2018-02-06T05:18:47.440Z,20.27
2018-02-06T05:21:15.793Z,23.90
2018-02-06T05:23:44.109Z,21.30
2018-02-06T05:26:12.461Z,16.58
2018-02-06T05:28:40.849Z,30.65
2018-02-06T05:31:09.228Z,20.17
2018-02-06T05:33:37.609Z,20.48
2018-02-06T05:36:05.980Z,20.70
2018-02-06T05:38:34.310Z,21.17
2018-02-06T05:41:02.654Z,26.20
2018-02-06T05:43:30.977Z,25.70
2018-02-06T05:45:59.360Z,23.77
2018-02-06T05:48:27.718Z,25.23
2018-02-06T05:50:56.063Z,24.37
2018-02-06T05:53:24.361Z,22.90
2018-02-06T05:55:52.706Z,26.15
2018-02-06T05:58:21.074Z,26.80
2018-02-06T06:00:49.429Z,30.02
2018-02-06T06:03:17.821Z,22.80
2018-02-06T06:05:46.196Z,27.42
2018-02-06T06:08:14.577Z,25.20
2018-02-06T06:10:43.011Z,20.67
2018-02-06T06:13:11.322Z,23.60
2018-02-06T06:15:39.673Z,24.80
2018-02-06T06:18:08.010Z,19.75
2018-02-06T06:20:36.361Z,28.35
2018-02-06T06:23:04.690Z,22.67
2018-02-06T06:25:33.078Z,28.52
2018-02-06T06:28:01.493Z,52.40
2018-02-06T06:30:29.822Z,41.80
2018-02-06T06:32:58.177Z,46.00
2018-02-06T06:35:26.508Z,84.62
2018-02-06T06:37:54.897Z,79.25
2018-02-06T06:40:23.227Z,64.37
2018-02-06T06:42:51.578Z,62.45
2018-02-06T06:45:19.907Z,73.62
2018-02-06T06:47:48.257Z,61.50
2018-02-06T06:50:16.594Z,38.35
2018-02-06T06:52:44.945Z,94.25
2018-02-06T06:55:13.276Z,79.30
2018-02-06T06:57:41.625Z,97.55
2018-02-06T07:00:09.954Z,45.08
2018-02-06T07:02:38.301Z,41.78
2018-02-06T07:05:06.637Z,46.78
2018-02-06T07:07:34.990Z,31.10
2018-02-06T07:10:03.393Z,35.85
2018-02-06T07:12:31.740Z,41.15
2018-02-06T07:15:00.078Z,26.60
2018-02-06T07:17:28.471Z,31.95
2018-02-06T07:19:56.806Z,23.77
2018-02-06T07:22:26.067Z,48.13
2018-02-06T07:24:54.406Z,46.13
2018-02-06T07:27:22.757Z,54.37
2018-02-06T07:29:51.099Z,34.28
2018-02-06T07:32:19.463Z,32.13
2018-02-06T07:34:47.798Z,45.10
2018-02-06T07:37:16.163Z,30.73
2018-02-06T07:39:44.489Z,35.73
2018-02-06T07:42:13.697Z,29.45
2018-02-06T07:44:42.038Z,29.57
2018-02-06T07:47:10.385Z,29.80
2018-02-06T07:49:38.717Z,27.17
2018-02-06T07:52:07.078Z,28.13
2018-02-06T07:54:35.419Z,25.73
2018-02-06T07:57:03.770Z,34.58
2018-02-06T07:59:34.642Z,31.60
2018-02-06T08:02:03.206Z,30.47
2018-02-06T08:04:31.537Z,39.63
2018-02-06T08:07:00.151Z,27.80
2018-02-06T08:09:28.494Z,29.87
2018-02-06T08:11:56.846Z,31.50
2018-02-06T08:14:25.177Z,39.67
2018-02-06T08:16:53.533Z,35.43
2018-02-06T08:19:21.878Z,34.80
2018-02-06T08:21:50.239Z,28.97
2018-02-06T08:24:18.574Z,32.45
2018-02-06T08:26:46.938Z,26.10
2018-02-06T08:29:15.273Z,31.37
2018-02-06T08:31:43.605Z,37.17
2018-02-06T08:34:11.965Z,33.90
2018-02-06T08:36:40.322Z,25.52
2018-02-06T08:39:08.662Z,33.35
2018-02-06T08:41:36.997Z,25.57
2018-02-06T08:44:05.357Z,33.00
2018-02-06T08:46:33.686Z,26.33
2018-02-06T08:49:02.037Z,24.00
2018-02-06T08:51:30.390Z,23.60
2018-02-06T08:53:58.746Z,23.23
2018-02-06T08:56:27.073Z,26.97
2018-02-06T08:58:55.421Z,21.17
2018-02-06T09:01:23.753Z,21.10
2018-02-06T09:03:52.102Z,22.55
2018-02-06T09:06:20.433Z,28.90
2018-02-06T09:08:48.790Z,28.63
2018-02-06T09:11:17.122Z,25.87
2018-02-06T09:13:45.473Z,21.47
2018-02-06T09:16:13.814Z,31.75
2018-02-06T09:18:42.162Z,19.12
2018-02-06T09:21:10.498Z,27.60
2018-02-06T09:23:38.849Z,33.47
2018-02-06T09:26:07.180Z,23.90
2018-02-06T09:28:35.557Z,19.93
2018-02-06T09:31:03.865Z,15.90
2018-02-06T09:33:32.214Z,22.57
2018-02-06T09:36:00.549Z,26.62
2018-02-06T09:38:28.900Z,16.53
2018-02-06T09:40:57.225Z,21.07
2018-02-06T09:43:25.577Z,21.90
2018-02-06T09:45:54.809Z,21.00
2018-02-06T09:48:23.157Z,18.73
2018-02-06T09:50:51.482Z,19.63
2018-02-06T09:53:19.848Z,18.93
2018-02-06T09:55:48.165Z,17.07
2018-02-06T09:58:16.521Z,17.27
2018-02-06T10:00:44.850Z,14.83
2018-02-06T10:03:13.197Z,20.03
2018-02-06T10:05:41.524Z,14.03
2018-02-06T10:08:09.886Z,25.00
2018-02-06T10:10:38.214Z,20.48
2018-02-06T10:13:06.561Z,18.80
2018-02-06T10:15:34.894Z,15.52
2018-02-06T10:18:03.248Z,20.60
2018-02-06T10:20:31.657Z,20.45
2018-02-06T10:23:00.010Z,17.00
2018-02-06T10:25:28.334Z,17.00
2018-02-06T10:27:56.698Z,14.63
2018-02-06T10:30:25.013Z,17.20
2018-02-06T10:32:53.336Z,26.23
2018-02-06T10:35:21.727Z,19.02
2018-02-06T10:37:50.032Z,18.73
2018-02-06T10:40:18.385Z,14.40
2018-02-06T10:42:46.717Z,15.73
2018-02-06T10:45:15.056Z,25.87
2018-02-06T10:47:43.378Z,21.75
2018-02-06T10:50:11.726Z,21.55
2018-02-06T10:52:40.049Z,17.30
2018-02-06T10:55:08.514Z,17.50
2018-02-06T10:57:36.932Z,13.33
2018-02-06T11:00:06.018Z,18.62
2018-02-06T11:02:34.357Z,17.27
2018-02-06T11:05:02.705Z,29.10
2018-02-06T11:07:31.044Z,17.03
2018-02-06T11:09:59.388Z,19.23
2018-02-06T11:12:27.725Z,16.50
2018-02-06T11:14:56.075Z,25.17
2018-02-06T11:17:24.397Z,20.77
2018-02-06T11:19:52.962Z,19.13
2018-02-06T11:22:21.365Z,23.27
2018-02-06T11:24:49.718Z,18.40
2018-02-06T11:27:18.033Z,20.67
2018-02-06T11:29:46.381Z,18.42
2018-02-06T11:32:14.711Z,21.23
2018-02-06T11:34:43.065Z,17.33
2018-02-06T11:37:11.393Z,11.77
2018-02-06T11:39:40.372Z,12.37
2018-02-06T11:42:08.740Z,21.90
2018-02-06T11:44:37.051Z,17.13
2018-02-06T11:47:05.377Z,20.83
2018-02-06T11:49:33.725Z,16.80
2018-02-06T11:52:02.069Z,19.85
2018-02-06T11:54:30.411Z,17.55
2018-02-06T11:56:58.733Z,30.37
2018-02-06T11:59:27.086Z,15.17
2018-02-06T12:01:55.413Z,16.57
2018-02-06T12:04:23.757Z,14.87
2018-02-06T12:06:52.085Z,16.40
2018-02-06T12:09:20.429Z,20.43
2018-02-06T12:11:48.758Z,16.37
2018-02-06T12:14:17.368Z,14.65
2018-02-06T12:16:45.717Z,25.53
2018-02-06T12:19:14.700Z,16.20
2018-02-06T12:21:43.021Z,17.27
2018-02-06T12:24:11.369Z,16.30
2018-02-06T12:26:39.704Z,13.50
2018-02-06T12:29:08.049Z,13.27
2018-02-06T12:31:36.382Z,26.50
2018-02-06T12:34:04.713Z,30.20
2018-02-06T12:36:33.065Z,16.13
2018-02-06T12:39:02.317Z,17.40
2018-02-06T12:41:30.665Z,14.13
2018-02-06T12:43:58.991Z,21.03
2018-02-06T12:46:27.337Z,23.67
2018-02-06T12:48:55.665Z,19.02
2018-02-06T12:51:24.017Z,13.90
2018-02-06T12:53:52.354Z,13.77
2018-02-06T12:56:20.693Z,13.03
2018-02-06T12:58:49.849Z,15.53
2018-02-06T13:01:18.198Z,25.53
2018-02-06T13:03:46.526Z,10.23
2018-02-06T13:06:15.709Z,15.03
2018-02-06T13:08:44.041Z,14.43
2018-02-06T13:11:12.385Z,14.40
2018-02-06T13:13:40.714Z,13.57
2018-02-06T13:16:09.060Z,17.48
2018-02-06T13:18:37.396Z,11.18
2018-02-06T13:21:05.746Z,10.73
2018-02-06T13:23:34.099Z,10.43
2018-02-06T13:26:02.426Z,18.53
2018-02-06T13:28:30.746Z,22.45
2018-02-06T13:30:59.098Z,18.37
2018-02-06T13:33:27.421Z,13.43
2018-02-06T13:35:58.171Z,10.83
2018-02-06T13:38:32.014Z,11.20
2018-02-06T13:41:00.435Z,9.13
2018-02-06T13:43:28.809Z,13.93
2018-02-06T13:45:58.094Z,12.17
2018-02-06T13:48:26.400Z,17.17
2018-02-06T13:50:55.404Z,21.55
2018-02-06T13:53:23.717Z,11.10
2018-02-06T13:55:53.041Z,11.63
2018-02-06T13:58:21.381Z,11.48
2018-02-06T14:00:51.189Z,10.90
2018-02-06T14:03:19.740Z,16.43
2018-02-06T14:05:48.164Z,19.37
2018-02-06T14:08:17.322Z,20.07
2018-02-06T14:10:57.006Z,38.93
2018-02-06T14:13:44.973Z,49.97
2018-02-06T14:19:15.434Z,24.90
2018-02-06T14:21:49.004Z,18.30
2018-02-06T14:24:17.418Z,21.27
2018-02-06T14:26:45.749Z,22.23
2018-02-06T14:29:14.915Z,17.77
2018-02-06T14:31:50.855Z,16.03
2018-02-06T14:34:20.431Z,13.25
2018-02-06T14:36:48.846Z,14.07
2018-02-06T14:39:17.285Z,9.20
2018-02-06T14:41:45.837Z,12.87
2018-02-06T14:44:14.301Z,11.67
2018-02-06T14:46:42.642Z,17.40
2018-02-06T14:49:10.970Z,12.97
2018-02-06T14:51:39.318Z,56.85
2018-02-06T14:54:07.650Z,30.43
2018-02-06T14:56:35.997Z,16.00
2018-02-06T14:59:04.317Z,16.73
2018-02-06T15:01:32.657Z,16.50
2018-02-06T15:04:01.018Z,19.73
2018-02-06T15:06:29.366Z,13.63
2018-02-06T15:08:58.021Z,18.85
2018-02-06T15:11:26.825Z,13.53
2018-02-06T15:13:55.438Z,14.00
2018-02-06T15:16:24.218Z,9.50
2018-02-06T15:18:53.493Z,17.53
2018-02-06T15:21:23.201Z,11.57
2018-02-06T15:23:51.782Z,12.37
2018-02-06T15:26:20.395Z,13.80
2018-02-06T15:28:48.868Z,14.37
2018-02-06T15:31:18.027Z,18.85
2018-02-06T15:33:46.760Z,19.37
2018-02-06T15:36:15.384Z,29.80
2018-02-06T15:38:44.161Z,28.98
2018-02-06T15:41:12.933Z,19.70
2018-02-06T15:43:41.725Z,21.90
2018-02-06T15:46:11.746Z,13.23
2018-02-06T15:48:40.540Z,21.07
2018-02-06T15:51:08.887Z,25.07
2018-02-06T15:53:37.200Z,18.65
2018-02-06T15:56:06.564Z,17.50
2018-02-06T15:58:34.883Z,18.83
2018-02-06T16:01:03.234Z,20.85
2018-02-06T16:03:31.589Z,24.83
2018-02-06T16:06:00.866Z,26.90
2018-02-06T16:08:29.220Z,17.67
2018-02-06T16:10:57.550Z,17.45
2018-02-06T16:13:25.894Z,16.73
2018-02-06T16:15:55.192Z,19.70
2018-02-06T16:18:23.537Z,19.27
2018-02-06T16:20:51.879Z,22.73
2018-02-06T16:23:20.729Z,22.33
2018-02-06T16:25:49.949Z,17.97
2018-02-06T16:28:18.303Z,17.07
2018-02-06T16:30:46.630Z,21.93
2018-02-06T16:33:14.977Z,21.60
2018-02-06T16:35:43.998Z,20.40
2018-02-06T16:38:12.345Z,21.00
2018-02-06T16:40:40.706Z,17.00
2018-02-06T16:43:09.081Z,19.47
2018-02-06T16:45:37.418Z,16.73
2018-02-06T16:48:05.877Z,14.10
2018-02-06T16:50:34.537Z,24.57
2018-02-06T16:53:02.938Z,20.80
2018-02-06T16:55:31.280Z,18.67
2018-02-06T16:57:59.613Z,20.77
2018-02-06T17:00:27.978Z,13.20
2018-02-06T17:02:56.337Z,16.80
2018-02-06T17:05:24.665Z,14.67
2018-02-06T17:07:53.015Z,16.87
2018-02-06T17:10:21.345Z,20.67
2018-02-06T17:12:49.699Z,18.37
2018-02-06T17:15:18.026Z,28.40
2018-02-06T17:17:46.390Z,23.95
2018-02-06T17:20:14.824Z,25.83
2018-02-06T17:22:43.654Z,23.30
2018-02-06T17:25:12.040Z,27.13
2018-02-06T17:27:40.774Z,20.83
2018-02-06T17:30:09.221Z,23.33
2018-02-06T17:32:37.576Z,29.40
2018-02-06T17:35:05.909Z,18.77
2018-02-06T17:37:34.267Z,37.63
2018-02-06T17:40:02.598Z,30.90
2018-02-06T17:42:30.949Z,21.67
2018-02-06T17:44:59.286Z,27.57
2018-02-06T17:47:27.636Z,17.37
2018-02-06T17:49:55.985Z,21.47
2018-02-06T17:52:24.334Z,17.93
2018-02-06T17:54:52.660Z,19.63
2018-02-06T17:57:21.078Z,19.02
2018-02-06T17:59:49.512Z,18.80
2018-02-06T18:02:17.965Z,17.58
2018-02-06T18:04:47.153Z,18.20
2018-02-06T18:07:16.045Z,22.05
2018-02-06T18:09:45.033Z,15.60
2018-02-06T18:12:17.200Z,18.37
2018-02-06T18:14:46.821Z,18.00
2018-02-06T18:17:16.002Z,21.83
2018-02-06T18:19:46.528Z,23.77
2018-02-06T18:22:17.056Z,23.40
2018-02-06T18:24:45.777Z,18.60
2018-02-06T18:27:16.423Z,16.17
2018-02-06T18:29:45.082Z,23.17
2018-02-06T18:32:15.214Z,18.58
2018-02-06T18:34:43.820Z,21.97
2018-02-06T18:37:12.406Z,24.83
2018-02-06T18:39:43.070Z,23.00
2018-02-06T18:42:12.300Z,20.07
2018-02-06T18:44:41.024Z,20.00
2018-02-06T18:47:09.683Z,19.20
2018-02-06T18:49:40.072Z,23.57
2018-02-06T18:52:10.921Z,26.45
2018-02-06T18:54:40.379Z,17.90
2018-02-06T18:57:08.938Z,21.03
2018-02-06T18:59:39.194Z,21.40
2018-02-06T19:02:08.009Z,35.72
2018-02-06T19:04:36.720Z,20.00
2018-02-06T19:07:06.873Z,25.53
2018-02-06T19:09:35.781Z,34.97
2018-02-06T19:12:05.511Z,23.40
2018-02-06T19:14:35.200Z,28.07
2018-02-06T19:17:04.092Z,25.13
2018-02-06T19:19:33.366Z,20.73
2018-02-06T19:22:02.898Z,26.47
2018-02-06T19:24:32.649Z,19.15
2018-02-06T19:27:02.004Z,18.70
2018-02-06T19:29:31.125Z,26.20
2018-02-06T19:31:59.569Z,23.27
2018-02-06T19:34:28.281Z,24.60
2018-02-06T19:36:56.830Z,26.40
2018-02-06T19:39:25.231Z,21.90
2018-02-06T19:41:53.566Z,18.33
2018-02-06T19:44:21.917Z,30.03
2018-02-06T19:46:50.685Z,28.10
2018-02-06T19:49:19.041Z,32.43
2018-02-06T19:51:47.378Z,21.07
2018-02-06T19:54:15.737Z,24.45
2018-02-06T19:56:44.128Z,26.57
2018-02-06T19:59:21.980Z,23.67
2018-02-06T20:01:56.281Z,26.30
2018-02-06T20:04:24.641Z,23.65
2018-02-06T20:06:52.969Z,24.37
2018-02-06T20:09:21.321Z,29.50
2018-02-06T20:11:49.733Z,29.20
2018-02-06T20:14:18.097Z,20.87
2018-02-06T20:16:46.468Z,30.23
2018-02-06T20:19:14.822Z,29.83
2018-02-06T20:21:43.155Z,26.73
2018-02-06T20:24:11.521Z,30.10
2018-02-06T20:26:40.795Z,29.50
2018-02-06T20:29:09.194Z,25.40
2018-02-06T20:31:37.530Z,28.93
2018-02-06T20:34:05.882Z,22.47
2018-02-06T20:36:34.935Z,26.17
2018-02-06T20:39:03.293Z,22.30
2018-02-06T20:41:31.627Z,23.70
2018-02-06T20:43:59.978Z,33.77
2018-02-06T20:46:28.309Z,30.00
2018-02-06T20:48:56.722Z,24.27
2018-02-06T20:51:25.058Z,22.27
2018-02-06T20:53:53.481Z,25.80
2018-02-06T20:56:21.820Z,29.00
2018-02-06T20:58:50.237Z,29.37
2018-02-06T21:01:18.595Z,24.00
2018-02-06T21:03:46.934Z,31.47
2018-02-06T21:06:15.302Z,29.45
2018-02-06T21:08:43.630Z,23.57
2018-02-06T21:11:11.989Z,27.57
2018-02-06T21:13:40.542Z,31.97
2018-02-06T21:16:09.441Z,24.42
2018-02-06T21:18:37.778Z,36.60
2018-02-06T21:21:06.498Z,28.87
2018-02-06T21:23:34.862Z,26.20
2018-02-06T21:26:03.248Z,35.00
2018-02-06T21:28:31.706Z,26.07
2018-02-06T21:31:00.070Z,33.60
2018-02-06T21:33:28.401Z,41.10
2018-02-06T21:35:56.760Z,30.60
2018-02-06T21:38:25.093Z,23.47
2018-02-06T21:40:53.449Z,26.50
2018-02-06T21:43:21.926Z,32.23
2018-02-06T21:45:51.226Z,36.25
2018-02-06T21:48:19.562Z,26.83
2018-02-06T21:50:47.913Z,31.03
2018-02-06T21:53:16.244Z,26.50
2018-02-06T21:55:44.813Z,30.37
2018-02-06T21:58:13.175Z,31.47
2018-02-06T22:00:41.512Z,23.77
2018-02-06T22:03:09.850Z,28.27
2018-02-06T22:05:38.203Z,31.20
2018-02-06T22:08:06.533Z,30.75
2018-02-06T22:10:34.885Z,32.40
2018-02-06T22:13:03.220Z,32.00
2018-02-06T22:15:31.577Z,28.00
2018-02-06T22:17:59.913Z,32.40
2018-02-06T22:20:28.265Z,27.47
2018-02-06T22:22:56.606Z,25.52
2018-02-06T22:25:24.995Z,28.70
2018-02-06T22:27:53.297Z,32.97
2018-02-06T22:30:21.854Z,27.58
2018-02-06T22:32:50.185Z,30.08
2018-02-06T22:35:18.532Z,26.55
2018-02-06T22:37:46.868Z,26.95
2018-02-06T22:40:15.217Z,29.12
2018-02-06T22:42:43.545Z,29.95
2018-02-06T22:45:11.894Z,25.40
2018-02-06T22:47:40.225Z,38.20
2018-02-06T22:50:08.573Z,36.10
2018-02-06T22:52:36.901Z,29.67
2018-02-06T22:55:05.250Z,30.88
2018-02-06T22:57:33.584Z,30.73
2018-02-06T23:00:01.933Z,34.53
2018-02-06T23:02:30.262Z,28.58
2018-02-06T23:04:58.589Z,32.20
2018-02-06T23:07:26.938Z,29.92
2018-02-06T23:09:55.264Z,27.37
2018-02-06T23:12:23.613Z,27.23
2018-02-06T23:14:51.942Z,27.92
2018-02-06T23:17:20.298Z,23.33
2018-02-06T23:19:48.629Z,35.15
2018-02-06T23:22:16.985Z,28.62
2018-02-06T23:24:45.317Z,28.87
2018-02-06T23:27:13.669Z,25.92
2018-02-06T23:29:41.998Z,31.40
2018-02-06T23:32:10.349Z,25.25
2018-02-06T23:34:38.682Z,27.67
2018-02-06T23:37:07.033Z,28.67
2018-02-06T23:39:35.362Z,24.37
2018-02-06T23:42:03.716Z,28.95
2018-02-06T23:44:32.041Z,27.92
2018-02-06T23:47:00.389Z,29.02
2018-02-06T23:49:28.718Z,33.00
2018-02-06T23:51:57.073Z,27.17
2018-02-06T23:54:25.403Z,35.75
2018-02-06T23:56:53.749Z,23.62
2018-02-06T23:59:22.077Z,26.95
